Time;durP1;ratioP1;P1;durP2;ratioP2;P2;SDS_P1;SDS_P2;PMS_P1;PMS_P2;Temp;Humidity;BMP_temperature;BMP_pressure;BME280_temperature;BME280_humidity;BME280_pressure;Samples;Min_cycle;Max_cycle;Signal;HPM_P1;HPM_P2
2022/05/05 00:01:05;;;;;;;3.62;1.20;;;;;;;7.83;41.54;101172.89;1700096;83;21077;-53
2022/05/05 00:03:32;;;;;;;4.78;1.42;;;;;;;7.80;42.21;101168.68;1696468;84;21090;-52
2022/05/05 00:05:58;;;;;;;6.15;2.02;;;;;;;7.78;41.73;101174.48;1692273;84;21150;-52
2022/05/05 00:08:25;;;;;;;5.05;1.57;;;;;;;7.74;41.47;101172.94;1690129;84;21030;-52
2022/05/05 00:16:23;;;;;;;4.60;1.70;;;;;;;7.67;42.52;101187.79;1704766;84;21125;-52
2022/05/05 00:18:50;;;;;;;4.03;1.70;;;;;;;7.62;42.98;101191.96;1702141;84;21160;-52
2022/05/05 00:21:16;;;;;;;5.12;2.10;;;;;;;7.60;42.89;101195.97;1703690;84;21027;-52
2022/05/05 00:23:43;;;;;;;4.08;1.32;;;;;;;7.58;43.10;101194.35;1698932;83;21066;-52
2022/05/05 00:26:10;;;;;;;4.15;1.65;;;;;;;7.58;42.90;101202.21;1702358;84;21102;-52
2022/05/05 00:28:36;;;;;;;4.25;1.40;;;;;;;7.55;43.17;101203.23;1697315;83;21049;-52
2022/05/05 00:31:03;;;;;;;4.90;1.75;;;;;;;7.52;43.61;101200.78;1696725;84;21150;-52
2022/05/05 00:33:30;;;;;;;5.85;1.50;;;;;;;7.53;43.17;101205.10;1700240;84;21070;-52
2022/05/05 00:35:57;;;;;;;4.53;1.60;;;;;;;7.51;43.00;101203.48;1700385;84;21078;-52
2022/05/05 00:38:24;;;;;;;5.22;1.70;;;;;;;7.50;43.07;101204.39;1690779;84;21099;-51
2022/05/05 00:40:51;;;;;;;5.50;1.75;;;;;;;7.47;43.10;101208.52;1692043;84;21091;-52
2022/05/05 00:43:17;;;;;;;5.25;1.30;;;;;;;7.45;43.26;101207.28;1685294;84;21173;-52
2022/05/05 00:45:44;;;;;;;4.17;1.47;;;;;;;7.41;43.27;101204.44;1687637;84;21083;-52
2022/05/05 00:48:12;;;;;;;4.12;1.15;;;;;;;7.38;42.95;101211.14;1684691;84;21054;-52
2022/05/05 00:50:38;;;;;;;4.60;1.67;;;;;;;7.34;42.71;101209.15;1736673;81;21072;-52
2022/05/05 00:53:05;;;;;;;5.90;1.57;;;;;;;7.28;42.84;101212.12;1735949;82;21041;-53
2022/05/05 00:55:33;;;;;;;4.20;1.65;;;;;;;7.29;43.58;101214.27;1731159;82;21967;-53
2022/05/05 00:58:01;;;;;;;4.12;1.57;;;;;;;7.25;43.45;101218.34;1738340;81;21071;-53
2022/05/05 01:00:29;;;;;;;4.30;1.57;;;;;;;7.22;43.27;101218.50;1738135;82;21100;-52
2022/05/05 01:02:55;;;;;;;5.50;1.70;;;;;;;7.21;43.02;101224.69;1731609;82;21045;-52
2022/05/05 01:05:22;;;;;;;4.97;1.65;;;;;;;7.16;44.40;101219.28;1739879;81;21072;-52
2022/05/05 01:07:48;;;;;;;7.33;1.80;;;;;;;7.15;44.30;101226.30;1735228;82;21191;-52
2022/05/05 01:10:14;;;;;;;4.00;1.80;;;;;;;7.14;44.57;101223.76;1739488;82;21136;-52
2022/05/05 01:12:41;;;;;;;5.62;2.12;;;;;;;7.14;44.35;101233.76;1738038;81;21030;-52
2022/05/05 01:15:09;;;;;;;4.83;1.98;;;;;;;7.13;44.06;101228.16;1737110;81;21085;-52
2022/05/05 01:17:54;;;;;;;4.15;1.60;;;;;;;7.09;43.31;101227.08;1724962;82;21084;-52
2022/05/05 01:20:47;;;;;;;6.20;2.30;;;;;;;7.05;43.39;101231.63;1724602;82;21112;-52
2022/05/05 01:23:32;;;;;;;6.47;2.30;;;;;;;7.01;44.08;101231.39;1726935;82;21095;-53
2022/05/05 01:28:46;;;;;;;5.90;2.15;;;;;;;6.94;44.44;101239.18;1722349;82;21089;-54
2022/05/05 01:31:12;;;;;;;7.72;2.10;;;;;;;6.92;44.04;101243.18;1726782;82;21291;-53
2022/05/05 01:33:39;;;;;;;6.25;2.35;;;;;;;6.89;44.24;101236.79;1729629;82;21065;-53
2022/05/05 01:36:07;;;;;;;4.58;1.87;;;;;;;6.86;44.10;101241.73;1737097;81;21033;-53
2022/05/05 01:38:36;;;;;;;5.03;1.87;;;;;;;6.85;44.13;101243.95;1736283;82;21582;-53
2022/05/05 01:41:09;;;;;;;6.83;2.00;;;;;;;6.82;44.26;101242.80;1730112;81;21065;-54
2022/05/05 01:43:36;;;;;;;4.78;1.82;;;;;;;6.80;44.46;101239.42;1734991;81;21640;-53
2022/05/05 01:46:03;;;;;;;5.08;1.87;;;;;;;6.78;44.43;101239.96;1735269;82;22872;-54
2022/05/05 01:48:30;;;;;;;5.47;2.37;;;;;;;6.76;44.17;101239.64;1725081;82;20974;-53
2022/05/05 01:50:57;;;;;;;4.85;1.60;;;;;;;6.73;44.49;101238.05;1729560;81;21048;-53
2022/05/05 01:53:24;;;;;;;5.20;1.82;;;;;;;6.72;44.39;101237.64;1725334;81;21022;-53
2022/05/05 01:55:51;;;;;;;4.47;1.98;;;;;;;6.70;44.53;101242.11;1724565;82;21036;-53
2022/05/05 01:58:17;;;;;;;4.08;1.32;;;;;;;6.68;44.29;101242.66;1734320;82;21214;-52
2022/05/05 02:00:44;;;;;;;5.75;1.85;;;;;;;6.67;44.68;101257.52;1724827;82;21048;-52
2022/05/05 02:03:13;;;;;;;4.40;1.70;;;;;;;6.65;44.12;101255.88;1724256;82;21017;-53
2022/05/05 02:05:42;;;;;;;4.67;2.00;;;;;;;6.64;44.38;101259.41;1735279;81;21077;-53
2022/05/05 02:08:10;;;;;;;5.95;2.83;;;;;;;6.64;44.59;101264.64;1735495;82;21028;-53
2022/05/05 02:10:37;;;;;;;4.30;1.50;;;;;;;6.60;44.52;101262.64;1724029;82;21137;-53
2022/05/05 02:13:05;;;;;;;4.75;1.85;;;;;;;6.59;44.78;101267.95;1725215;82;21019;-53
2022/05/05 02:15:34;;;;;;;4.37;1.70;;;;;;;6.56;45.08;101270.27;1725427;82;21599;-53
2022/05/05 02:18:11;;;;;;;8.03;2.33;;;;;;;6.55;44.92;101279.49;1724748;82;21127;-53
2022/05/05 02:20:38;;;;;;;4.60;1.57;;;;;;;6.53;44.99;101269.58;1725389;82;21534;-53
2022/05/05 02:23:06;;;;;;;4.35;1.62;;;;;;;6.48;45.14;101274.55;1727949;82;21973;-53
2022/05/05 02:25:33;;;;;;;5.00;1.70;;;;;;;6.46;45.75;101278.17;1733068;81;21081;-52
2022/05/05 02:28:01;;;;;;;7.53;1.90;;;;;;;6.43;45.26;101280.94;1724213;81;21030;-53
2022/05/05 02:30:28;;;;;;;6.25;2.37;;;;;;;6.41;45.66;101273.63;1735758;82;21108;-53
2022/05/05 02:32:55;;;;;;;5.80;1.92;;;;;;;6.40;45.45;101281.91;1736424;82;21017;-53
2022/05/05 02:35:22;;;;;;;4.33;1.80;;;;;;;6.39;46.08;101283.30;1740956;82;21534;-53
2022/05/05 02:40:35;;;;;;;5.47;1.45;;;;;;;6.36;45.78;101292.14;1753282;81;21044;-52
2022/05/05 02:43:01;;;;;;;4.67;2.10;;;;;;;6.32;45.75;101296.67;1743765;81;21112;-53
2022/05/05 02:45:27;;;;;;;5.92;2.22;;;;;;;6.32;46.02;101296.67;1752009;81;21100;-53
2022/05/05 02:47:55;;;;;;;4.30;1.70;;;;;;;6.32;46.42;101298.42;1703652;82;22013;-52
2022/05/05 02:50:22;;;;;;;5.70;1.90;;;;;;;6.31;46.49;101302.81;1751220;80;22139;-53
2022/05/05 02:52:49;;;;;;;7.17;2.15;;;;;;;6.31;46.55;101309.34;1751813;81;21017;-53
2022/05/05 02:55:16;;;;;;;5.35;1.85;;;;;;;6.33;46.27;101310.58;1750482;81;21045;-53
2022/05/05 02:57:43;;;;;;;4.00;1.50;;;;;;;6.35;46.41;101310.05;1746002;81;21096;-53
2022/05/05 03:00:12;;;;;;;5.30;2.02;;;;;;;6.37;46.69;101313.45;1744535;81;21096;-52
2022/05/05 03:02:41;;;;;;;5.35;1.87;;;;;;;6.38;46.14;101311.21;1727657;82;21095;-52
2022/05/05 03:05:11;;;;;;;3.50;1.47;;;;;;;6.40;45.83;101317.20;1723611;81;21095;-53
2022/05/05 03:07:37;;;;;;;4.40;1.60;;;;;;;6.43;45.55;101320.15;1723627;82;21045;-52
2022/05/05 03:10:05;;;;;;;5.90;2.10;;;;;;;6.44;45.30;101323.13;1717872;82;21135;-52
2022/05/05 03:12:32;;;;;;;6.17;1.85;;;;;;;6.44;45.63;101318.77;1722905;82;21811;-52
2022/05/05 03:14:58;;;;;;;4.85;1.55;;;;;;;6.45;45.46;101319.14;1725892;82;22213;-52
2022/05/05 03:17:25;;;;;;;4.55;1.98;;;;;;;6.47;45.15;101333.45;1722529;82;21769;-52
2022/05/05 03:19:51;;;;;;;5.72;2.20;;;;;;;6.45;45.79;101323.06;1723808;81;21037;-53
2022/05/05 03:22:18;;;;;;;5.03;1.98;;;;;;;6.48;44.93;101327.31;1726581;82;21558;-53
2022/05/05 03:24:45;;;;;;;4.70;1.62;;;;;;;6.49;44.91;101331.63;1729609;81;21516;-53
2022/05/05 03:27:11;;;;;;;4.00;1.75;;;;;;;6.50;44.77;101332.84;1722472;82;21053;-53
2022/05/05 03:29:39;;;;;;;5.37;1.75;;;;;;;6.51;44.54;101338.47;1725310;82;21021;-53
2022/05/05 03:32:07;;;;;;;6.75;2.35;;;;;;;6.51;45.21;101340.24;1726382;82;21325;-52
2022/05/05 03:34:34;;;;;;;5.92;2.30;;;;;;;6.56;45.10;101340.88;1726084;82;21774;-53
2022/05/05 03:37:00;;;;;;;5.85;2.70;;;;;;;6.59;44.48;101345.09;1724383;82;21185;-53
2022/05/05 03:39:26;;;;;;;6.08;2.62;;;;;;;6.63;44.23;101351.41;1720961;80;21084;-52
2022/05/05 03:41:54;;;;;;;4.83;2.08;;;;;;;6.66;44.11;101359.59;1660964;85;21051;-52
2022/05/05 03:44:20;;;;;;;6.87;2.10;;;;;;;6.69;44.96;101362.03;1677751;83;21094;-52
2022/05/05 03:46:47;;;;;;;8.70;2.17;;;;;;;6.72;44.39;101363.66;1703015;83;21129;-52
2022/05/05 03:49:13;;;;;;;5.40;1.85;;;;;;;6.74;44.09;101359.20;1694889;83;21214;-52
2022/05/05 03:51:40;;;;;;;4.20;1.60;;;;;;;6.77;43.86;101361.67;1696121;83;21094;-53
2022/05/05 03:54:06;;;;;;;4.83;1.67;;;;;;;6.81;44.17;101368.00;1702010;83;21110;-52
2022/05/05 03:56:33;;;;;;;5.65;2.10;;;;;;;6.85;44.05;101375.23;1701279;83;21078;-53
2022/05/05 03:59:00;;;;;;;5.50;2.02;;;;;;;6.91;44.72;101364.92;1753044;81;21033;-53
2022/05/05 04:01:27;;;;;;;8.00;2.00;;;;;;;6.95;44.17;101374.33;1749464;81;21546;-53
2022/05/05 04:03:54;;;;;;;5.20;1.82;;;;;;;6.98;44.17;101375.02;1749671;81;21620;-53
2022/05/05 04:06:21;;;;;;;6.00;2.02;;;;;;;7.05;44.00;101374.26;1740770;81;21037;-52
2022/05/05 04:08:48;;;;;;;5.55;1.90;;;;;;;7.08;43.96;101375.42;1753290;81;21561;-54
2022/05/05 04:11:15;;;;;;;5.70;1.82;;;;;;;7.13;44.07;101376.04;1750292;80;21080;-54
2022/05/05 04:13:42;;;;;;;5.62;2.00;;;;;;;7.16;43.83;101382.44;1751071;81;21102;-54
2022/05/05 04:16:09;;;;;;;6.35;2.27;;;;;;;7.21;43.63;101385.67;1755787;79;21033;-52
2022/05/05 04:18:36;;;;;;;6.12;2.55;;;;;;;7.24;43.24;101395.12;1728245;81;21032;-52
2022/05/05 04:21:02;;;;;;;5.17;1.90;;;;;;;7.24;43.58;101395.96;1720719;82;21438;-51
2022/05/05 04:23:29;;;;;;;3.77;1.52;;;;;;;7.29;44.17;101395.73;1725648;81;21095;-52
2022/05/05 04:25:56;;;;;;;4.92;1.95;;;;;;;7.33;43.74;101392.06;1726420;81;21146;-52
2022/05/05 04:28:23;;;;;;;4.37;1.40;;;;;;;7.39;43.84;101390.89;1710948;82;21530;-52
2022/05/05 04:30:49;;;;;;;4.05;1.82;;;;;;;7.44;43.86;101394.96;1752527;81;21460;-52
2022/05/05 04:33:16;;;;;;;5.10;2.15;;;;;;;7.50;43.54;101402.12;1752620;81;21613;-53
2022/05/05 04:35:43;;;;;;;7.33;1.75;;;;;;;7.53;43.53;101400.22;1752243;80;21037;-54
2022/05/05 04:38:10;;;;;;;4.80;1.47;;;;;;;7.58;43.93;101398.21;1711012;81;21100;-54
2022/05/05 04:40:36;;;;;;;5.72;1.90;;;;;;;7.62;43.83;101391.03;1749919;80;21021;-54
2022/05/05 04:43:03;;;;;;;3.77;1.65;;;;;;;7.65;43.07;101397.44;1762082;80;21750;-53
2022/05/05 04:45:30;;;;;;;6.85;1.70;;;;;;;7.66;42.75;101399.11;1749303;80;21318;-54
2022/05/05 04:47:56;;;;;;;5.65;1.42;;;;;;;7.70;43.71;101399.79;1743939;81;21107;-53
2022/05/05 04:50:23;;;;;;;4.83;1.98;;;;;;;7.74;43.49;101401.34;1746466;80;21793;-54
2022/05/05 04:52:50;;;;;;;3.92;1.62;;;;;;;7.79;43.43;101400.64;1741460;80;21024;-54
2022/05/05 04:55:17;;;;;;;4.55;1.45;;;;;;;7.86;42.75;101411.17;1727381;81;21562;-54
2022/05/05 04:57:44;;;;;;;4.08;1.50;;;;;;;7.90;42.90;101410.11;1750529;80;21064;-54
2022/05/05 05:00:12;;;;;;;3.87;1.40;;;;;;;7.96;42.99;101411.07;1749064;81;21059;-54
2022/05/05 05:02:39;;;;;;;5.47;1.67;;;;;;;8.02;42.96;101411.23;1754772;79;21138;-54
2022/05/05 05:05:07;;;;;;;5.60;1.37;;;;;;;8.08;42.93;101417.91;1763536;80;21044;-54
2022/05/05 05:07:34;;;;;;;5.60;1.42;;;;;;;8.11;42.40;101412.52;1761289;80;21063;-54
2022/05/05 05:10:01;;;;;;;4.78;1.80;;;;;;;8.16;42.82;101413.95;1744032;80;21482;-54
2022/05/05 05:12:27;;;;;;;4.37;1.72;;;;;;;8.23;42.59;101413.63;1743172;81;21521;-53
2022/05/05 05:14:54;;;;;;;3.95;1.30;;;;;;;8.29;42.57;101415.94;1740386;81;21491;-54
2022/05/05 05:17:20;;;;;;;3.17;1.12;;;;;;;8.35;42.46;101421.70;1740143;81;21514;-54
2022/05/05 05:19:48;;;;;;;3.20;1.30;;;;;;;8.42;42.26;101427.42;1746608;81;21043;-54
2022/05/05 05:22:14;;;;;;;3.50;1.00;;;;;;;8.49;41.99;101429.28;1740406;81;21582;-54
2022/05/05 05:24:41;;;;;;;4.22;1.55;;;;;;;8.57;42.09;101423.16;1740065;81;21526;-53
2022/05/05 05:27:08;;;;;;;4.70;1.30;;;;;;;8.66;41.97;101425.77;1741458;80;21151;-52
2022/05/05 05:31:26;;;;;;;3.80;1.05;;;;;;;8.78;42.37;101424.23;1793758;78;21993;-53
2022/05/05 05:33:53;;;;;;;3.52;1.10;;;;;;;8.85;41.75;101432.13;1765627;79;21641;-54
2022/05/05 05:36:20;;;;;;;3.95;1.40;;;;;;;8.90;41.44;101429.63;1759579;79;21156;-52
2022/05/05 05:38:46;;;;;;;3.95;1.20;;;;;;;8.96;40.49;101430.20;1758943;80;21040;-55
2022/05/05 05:41:13;;;;;;;5.37;1.30;;;;;;;9.05;40.84;101432.33;1768539;80;21020;-55
2022/05/05 05:43:39;;;;;;;5.17;1.02;;;;;;;9.13;40.91;101433.18;1766656;79;21078;-54
2022/05/05 05:46:06;;;;;;;3.95;1.10;;;;;;;9.19;40.27;101444.66;1766591;79;21026;-54
2022/05/05 05:48:33;;;;;;;3.95;1.00;;;;;;;9.25;40.28;101440.37;1765871;80;21132;-53
2022/05/05 05:50:59;;;;;;;4.17;1.20;;;;;;;9.33;40.20;101449.98;1763060;79;20952;-53
2022/05/05 05:53:26;;;;;;;2.62;1.10;;;;;;;9.42;40.20;101444.17;1764384;79;21067;-53
2022/05/05 05:55:53;;;;;;;4.37;1.20;;;;;;;9.52;39.61;101446.28;1766403;79;21106;-53
2022/05/05 05:58:19;;;;;;;4.40;1.00;;;;;;;9.58;40.32;101446.77;1764134;80;21137;-54
2022/05/05 06:00:46;;;;;;;3.30;1.02;;;;;;;9.66;39.26;101444.98;1764916;80;21127;-54
2022/05/05 06:05:58;;;;;;;3.10;1.10;;;;;;;9.79;39.83;101451.20;1767552;80;21035;-54
2022/05/05 06:08:24;;;;;;;3.85;1.00;;;;;;;9.88;39.26;101454.22;1762886;81;21011;-54
2022/05/05 06:10:51;;;;;;;3.33;1.00;;;;;;;9.93;38.52;101449.53;1768140;80;21051;-54
2022/05/05 06:13:17;;;;;;;4.05;1.30;;;;;;;10.01;38.71;101442.02;1770227;79;21112;-53
2022/05/05 06:15:44;;;;;;;3.50;1.20;;;;;;;10.09;38.60;101447.67;1768114;80;21038;-52
2022/05/05 06:18:11;;;;;;;3.77;1.32;;;;;;;10.18;38.55;101450.20;1765616;79;21034;-53
2022/05/05 06:20:37;;;;;;;4.33;1.22;;;;;;;10.28;38.53;101450.48;1759558;79;21031;-54
2022/05/05 06:23:04;;;;;;;3.40;1.20;;;;;;;10.31;37.00;101451.13;1765674;79;21034;-53
2022/05/05 06:25:30;;;;;;;3.62;1.20;;;;;;;10.33;37.58;101455.02;1766344;80;21293;-54
2022/05/05 06:27:58;;;;;;;3.42;1.30;;;;;;;10.39;38.32;101454.66;1767997;79;21076;-52
2022/05/05 06:30:24;;;;;;;3.65;1.22;;;;;;;10.48;38.05;101459.33;1749288;79;21025;-54
2022/05/05 06:32:51;;;;;;;4.85;1.40;;;;;;;10.57;37.78;101461.84;1759029;79;20972;-53
2022/05/05 06:35:17;;;;;;;3.60;1.30;;;;;;;10.63;37.43;101461.95;1760219;80;21062;-53
2022/05/05 06:37:50;;;;;;;3.27;1.00;;;;;;;10.68;37.18;101467.77;1755133;79;21136;-53
2022/05/05 06:40:14;;;;;;;4.08;1.40;;;;;;;10.74;36.49;101467.36;1749979;81;21748;-53
2022/05/05 06:42:41;;;;;;;3.72;1.30;;;;;;;10.81;36.04;101462.55;1753252;79;21555;-54
2022/05/05 06:45:10;;;;;;;3.70;1.17;;;;;;;10.90;35.79;101464.61;1755258;81;21084;-54
2022/05/05 06:47:36;;;;;;;3.08;0.90;;;;;;;10.96;36.07;101465.06;1756973;79;22039;-54
2022/05/05 06:50:04;;;;;;;3.42;0.98;;;;;;;11.05;36.21;101464.93;1758377;79;21142;-53
2022/05/05 06:52:30;;;;;;;4.05;0.93;;;;;;;11.13;35.75;101464.45;1756579;79;21734;-52
2022/05/05 06:54:57;;;;;;;4.20;0.90;;;;;;;11.19;34.93;101467.98;1749328;81;21532;-52
2022/05/05 06:57:23;;;;;;;4.28;0.80;;;;;;;11.22;34.20;101465.62;1756482;81;21035;-52
2022/05/05 06:59:50;;;;;;;2.80;0.75;;;;;;;11.28;33.46;101470.47;1757619;81;21047;-52
2022/05/05 07:02:17;;;;;;;2.80;0.80;;;;;;;11.28;33.39;101473.98;1758232;81;22024;-52
2022/05/05 07:05:29;;;;;;;3.17;0.82;;;;;;;11.31;32.64;101478.19;1746815;81;21745;-53
2022/05/05 07:07:13;;;;;;;4.62;0.90;;;;;;;11.32;32.89;101472.81;1735360;81;21144;-53
2022/05/05 07:12:29;;;;;;;4.70;1.45;;;;;;;11.48;32.32;101482.34;1754361;81;21016;-52
2022/05/05 07:14:56;;;;;;;4.28;1.15;;;;;;;11.52;32.74;101479.89;1756471;80;21541;-53
2022/05/05 07:17:23;;;;;;;3.87;1.30;;;;;;;11.57;32.54;101480.91;1757832;80;21021;-53
2022/05/05 07:19:51;;;;;;;3.47;1.20;;;;;;;11.62;32.92;101478.32;1751336;79;21525;-53
2022/05/05 07:22:17;;;;;;;3.95;1.10;;;;;;;11.65;32.12;101485.16;1759227;81;21043;-52
2022/05/05 07:24:44;;;;;;;4.80;1.07;;;;;;;11.66;32.43;101482.91;1757400;80;21044;-52
2022/05/05 07:27:11;;;;;;;3.22;1.35;;;;;;;11.69;32.12;101482.71;1755814;81;21175;-52
2022/05/05 07:29:38;;;;;;;4.08;1.30;;;;;;;11.78;32.21;101482.56;1750950;79;21103;-54
2022/05/05 07:32:06;;;;;;;6.97;1.87;;;;;;;11.87;32.47;101493.33;1757598;79;21110;-53
2022/05/05 07:34:34;;;;;;;4.47;1.85;;;;;;;11.94;32.37;101489.00;1756374;80;21056;-53
2022/05/05 07:37:02;;;;;;;6.30;1.32;;;;;;;11.99;31.90;101491.69;1757718;79;21127;-53
2022/05/05 07:39:28;;;;;;;2.72;0.80;;;;;;;11.98;32.84;101492.62;1759349;81;21832;-53
2022/05/05 07:41:55;;;;;;;3.37;1.12;;;;;;;12.02;32.51;101492.80;1758740;79;21534;-53
2022/05/05 07:44:21;;;;;;;6.62;1.30;;;;;;;12.06;31.84;101489.47;1757736;81;21553;-53
2022/05/05 07:46:48;;;;;;;4.87;1.27;;;;;;;12.08;32.39;101480.97;1758593;79;21016;-53
2022/05/05 07:49:15;;;;;;;5.20;1.25;;;;;;;12.15;31.38;101489.30;1758074;81;21118;-53
2022/05/05 07:51:41;;;;;;;3.22;0.93;;;;;;;12.14;30.21;101484.52;1754239;79;21136;-53
2022/05/05 07:56:52;;;;;;;3.98;1.55;;;;;;;12.08;30.84;101483.61;1756478;81;21657;-54
2022/05/05 07:59:19;;;;;;;4.60;1.37;;;;;;;12.12;31.42;101478.51;1757287;80;22317;-52
2022/05/05 08:01:46;;;;;;;3.35;1.15;;;;;;;12.16;31.02;101485.73;1755804;81;21058;-52
2022/05/05 08:04:13;;;;;;;4.25;1.35;;;;;;;12.19;31.23;101485.04;1756013;81;22079;-52
2022/05/05 08:06:40;;;;;;;4.53;1.37;;;;;;;12.21;30.85;101477.02;1756918;81;21039;-52
2022/05/05 08:09:08;;;;;;;3.20;1.35;;;;;;;12.19;31.05;101475.80;1755109;81;23487;-52
2022/05/05 08:11:36;;;;;;;3.20;1.20;;;;;;;12.20;31.00;101476.16;1746979;79;21547;-52
2022/05/05 08:14:04;;;;;;;4.20;1.37;;;;;;;12.22;30.63;101476.05;1757407;81;21096;-53
2022/05/05 08:16:31;;;;;;;3.52;1.27;;;;;;;12.20;30.77;101474.83;1704485;83;21123;-53
2022/05/05 08:18:58;;;;;;;3.90;1.20;;;;;;;12.20;29.42;101466.91;1757265;81;21032;-53
2022/05/05 08:21:24;;;;;;;3.50;1.32;;;;;;;12.19;30.02;101479.77;1758182;79;21080;-53
2022/05/05 08:28:28;;;;;;;3.15;1.10;;;;;;;12.16;30.27;101480.45;1759113;81;21104;-53
2022/05/05 08:29:04;;;;;;;3.40;1.20;;;;;;;12.23;30.26;101486.98;1756310;81;21137;-52
2022/05/05 08:31:31;;;;;;;3.37;1.30;;;;;;;12.29;30.22;101487.89;1750481;80;21041;-53
2022/05/05 08:33:57;;;;;;;3.15;1.15;;;;;;;12.37;31.60;101482.92;1756073;81;21093;-53
2022/05/05 08:36:24;;;;;;;3.47;1.30;;;;;;;12.48;31.10;101481.32;1745659;81;21033;-52
2022/05/05 08:38:51;;;;;;;3.17;0.95;;;;;;;12.59;31.44;101473.45;1755962;81;21037;-52
2022/05/05 08:41:18;;;;;;;3.50;1.02;;;;;;;12.70;31.24;101472.23;1699061;83;21154;-52
2022/05/05 08:43:44;;;;;;;4.40;1.32;;;;;;;12.81;30.74;101468.34;1756774;81;21038;-53
2022/05/05 08:46:13;;;;;;;3.52;0.98;;;;;;;12.83;29.37;101466.42;1750915;81;20984;-53
2022/05/05 08:49:02;;;;;;;3.52;1.15;;;;;;;12.82;29.97;101467.37;1754272;81;21037;-51
2022/05/05 08:51:42;;;;;;;3.08;1.07;;;;;;;12.80;29.59;101457.40;1741932;80;21093;-51
2022/05/05 08:54:16;;;;;;;4.10;1.07;;;;;;;12.81;30.88;101468.34;1730978;82;21170;-52
2022/05/05 08:56:40;;;;;;;4.85;1.10;;;;;;;12.93;30.40;101464.45;1749102;81;21087;-52
2022/05/05 08:59:08;;;;;;;6.72;1.30;;;;;;;13.05;30.23;101467.52;1737941;81;21009;-53
2022/05/05 09:01:38;;;;;;;4.08;1.00;;;;;;;13.18;30.27;101469.62;1747626;81;21047;-52
2022/05/05 09:04:06;;;;;;;3.30;1.10;;;;;;;13.30;30.45;101472.31;1749080;80;21052;-53
2022/05/05 09:06:46;;;;;;;5.15;1.22;;;;;;;13.44;30.71;101475.28;1751195;80;21089;-53
2022/05/05 09:09:35;;;;;;;4.28;1.12;;;;;;;13.58;30.29;101471.59;1749958;81;21009;-52
2022/05/05 09:12:16;;;;;;;2.42;0.90;;;;;;;13.66;29.69;101463.92;1748881;80;21089;-52
2022/05/05 09:14:52;;;;;;;4.05;1.10;;;;;;;13.74;29.11;101459.73;1751002;81;21079;-53
2022/05/05 09:17:21;;;;;;;4.12;1.15;;;;;;;13.84;29.51;101461.69;1754594;81;21103;-53
2022/05/05 09:19:51;;;;;;;3.22;1.07;;;;;;;13.92;28.90;101459.30;1752491;81;21875;-53
2022/05/05 09:22:21;;;;;;;3.75;0.93;;;;;;;13.99;29.08;101457.85;1751813;81;22214;-53
2022/05/05 09:24:51;;;;;;;3.12;0.93;;;;;;;14.03;29.22;101461.10;1754594;81;21083;-52
2022/05/05 09:27:35;;;;;;;3.37;1.10;;;;;;;14.09;28.84;101469.90;1753117;81;21068;-53
2022/05/05 09:30:14;;;;;;;4.72;0.78;;;;;;;14.17;28.75;101462.20;1691001;83;21079;-53
2022/05/05 09:32:43;;;;;;;2.85;1.00;;;;;;;14.28;28.14;101465.33;1749717;81;21157;-53
2022/05/05 09:35:15;;;;;;;2.95;0.98;;;;;;;14.35;28.48;101459.90;1746276;80;21029;-53
2022/05/05 09:37:50;;;;;;;2.42;1.00;;;;;;;14.43;28.28;101457.98;1727664;83;21532;-53
2022/05/05 09:40:18;;;;;;;3.77;1.17;;;;;;;14.51;28.07;101456.89;1747259;80;21012;-54
2022/05/05 09:42:47;;;;;;;3.70;1.27;;;;;;;14.58;28.73;101458.08;1750533;81;21667;-54
2022/05/05 09:45:26;;;;;;;3.17;1.07;;;;;;;14.64;28.65;101454.98;1757458;81;22288;-54
2022/05/05 09:48:01;;;;;;;4.28;1.10;;;;;;;14.72;28.94;101463.62;1749932;80;21063;-51
